Time;durP1;ratioP1;P1;durP2;ratioP2;P2;SDS_P1;SDS_P2;PMS_P1;PMS_P2;Temp;Humidity;BMP_temperature;BMP_pressure;BME280_temperature;BME280_humidity;BME280_pressure;Samples;Min_cycle;Max_cycle;Signal;HPM_P1;HPM_P2
2022/11/29 00:01:14;;;;;;;4.50;4.10;;;;;;;5.31;90.64;95076.47;4920404;29;20444;-83
2022/11/29 00:03:41;;;;;;;4.30;3.90;;;;;;;5.45;90.44;95084.25;4919820;29;20916;-82
2022/11/29 00:06:11;;;;;;;6.07;4.17;;;;;;;5.55;90.75;95087.13;4919757;29;20444;-82
2022/11/29 00:15:42;;;;;;;6.80;4.63;;;;;;;5.77;89.26;95092.66;4920706;29;20444;-83
2022/11/29 00:18:09;;;;;;;6.10;4.30;;;;;;;5.80;89.96;95091.66;4920363;29;20502;-83
2022/11/29 00:20:38;;;;;;;6.23;4.60;;;;;;;5.85;89.43;95100.00;4920589;29;20456;-83
2022/11/29 00:23:05;;;;;;;9.53;4.10;;;;;;;5.88;88.29;95105.03;4919807;29;20452;-82
2022/11/29 00:25:32;;;;;;;7.73;5.33;;;;;;;5.88;88.06;95097.22;4919633;29;20464;-84
2022/11/29 00:27:59;;;;;;;5.80;3.63;;;;;;;5.79;86.76;95097.78;4919226;29;20445;-84
2022/11/29 00:30:25;;;;;;;3.47;3.17;;;;;;;5.60;86.88;95098.09;4919372;29;20970;-83
2022/11/29 00:32:54;;;;;;;2.70;2.50;;;;;;;5.51;86.57;95094.31;4920182;29;20477;-84
2022/11/29 00:35:20;;;;;;;4.33;3.10;;;;;;;5.36;86.66;95092.63;4920374;29;20467;-84
2022/11/29 00:37:47;;;;;;;3.67;2.80;;;;;;;5.32;86.95;95105.94;4919361;29;20452;-84
2022/11/29 00:40:14;;;;;;;2.83;2.63;;;;;;;5.32;87.40;95103.31;4919096;29;20510;-84
2022/11/29 00:49:25;;;;;;;4.27;3.10;;;;;;;5.27;88.16;95103.59;4918907;29;20408;-84
2022/11/29 00:51:52;;;;;;;3.87;3.20;;;;;;;5.33;87.71;95105.00;4919067;29;20472;-84
2022/11/29 00:54:19;;;;;;;6.80;2.90;;;;;;;5.29;88.73;95101.75;4918889;29;20478;-83
2022/11/29 00:56:46;;;;;;;3.57;3.27;;;;;;;5.25;88.65;95095.91;4918643;29;20792;-83
2022/11/29 00:59:13;;;;;;;3.00;2.80;;;;;;;5.20;88.85;95097.94;4917111;29;20456;-84
2022/11/29 01:01:39;;;;;;;3.93;2.97;;;;;;;5.24;89.35;95096.81;4919057;29;20522;-83
2022/11/29 01:04:06;;;;;;;3.83;3.10;;;;;;;5.16;88.84;95085.19;4918910;29;20471;-84
2022/11/29 01:06:34;;;;;;;3.33;3.03;;;;;;;5.24;89.26;95099.44;4918705;29;20437;-84
2022/11/29 01:09:01;;;;;;;5.40;3.30;;;;;;;5.19;89.26;95085.00;4917160;29;20804;-85
2022/11/29 01:11:28;;;;;;;2.93;2.73;;;;;;;5.10;89.04;95086.41;4918647;29;20990;-84
2022/11/29 01:13:57;;;;;;;3.17;2.63;;;;;;;4.91;90.41;95084.06;4919403;29;20452;-85
2022/11/29 01:16:24;;;;;;;2.43;2.23;;;;;;;4.98;90.14;95080.19;4919946;29;20463;-84
2022/11/29 01:18:52;;;;;;;2.50;2.30;;;;;;;5.09;89.66;95078.69;4918222;29;20428;-84
2022/11/29 01:21:21;;;;;;;3.10;2.50;;;;;;;4.88;90.54;95086.00;4918344;29;20892;-84
2022/11/29 01:23:51;;;;;;;3.00;2.80;;;;;;;4.88;90.65;95084.25;4918222;29;20436;-84
2022/11/29 01:26:21;;;;;;;2.87;2.67;;;;;;;5.04;90.85;95080.75;4918423;29;20443;-84
2022/11/29 01:29:20;;;;;;;3.30;2.73;;;;;;;5.21;89.98;95077.97;4900866;29;20449;-84
2022/11/29 01:31:47;;;;;;;2.43;2.23;;;;;;;5.30;88.99;95080.00;4915940;29;20496;-84
2022/11/29 01:34:13;;;;;;;2.80;2.50;;;;;;;5.24;89.48;95078.63;4916365;29;20931;-84
2022/11/29 01:36:40;;;;;;;2.60;2.40;;;;;;;5.36;88.22;95077.03;4916076;29;20458;-85
2022/11/29 01:39:08;;;;;;;4.20;3.90;;;;;;;5.38;88.96;95079.53;4884833;29;20468;-84
2022/11/29 01:41:37;;;;;;;2.77;2.57;;;;;;;5.48;88.71;95071.03;4915869;29;20436;-84
2022/11/29 01:44:07;;;;;;;3.00;2.40;;;;;;;5.55;88.04;95067.16;4915920;29;20543;-84
2022/11/29 01:46:36;;;;;;;2.10;1.90;;;;;;;5.55;87.61;95067.16;4915991;29;20856;-84
2022/11/29 01:49:07;;;;;;;2.77;2.57;;;;;;;5.67;87.46;95068.13;4916406;29;20449;-84
2022/11/29 01:51:37;;;;;;;3.00;2.70;;;;;;;5.67;87.58;95075.13;4918184;29;20483;-84
2022/11/29 01:54:05;;;;;;;4.87;4.10;;;;;;;5.66;87.45;95069.06;4917776;29;20441;-84
2022/11/29 01:56:34;;;;;;;3.93;3.23;;;;;;;5.70;87.31;95059.31;4918057;29;20442;-84
2022/11/29 02:02:33;;;;;;;3.50;2.77;;;;;;;5.82;87.80;95058.53;4916242;29;20942;-84
2022/11/29 02:05:02;;;;;;;3.73;3.43;;;;;;;5.86;88.21;95054.81;4915134;29;20453;-84
2022/11/29 02:07:29;;;;;;;3.17;2.83;;;;;;;5.92;87.78;95053.59;4914719;29;20448;-85
2022/11/29 02:09:56;;;;;;;3.80;3.40;;;;;;;5.93;86.62;95050.91;4915017;29;20952;-84
2022/11/29 02:12:33;;;;;;;3.53;3.23;;;;;;;5.95;86.23;95040.38;4915440;29;21014;-84
2022/11/29 02:15:09;;;;;;;5.30;2.73;;;;;;;5.91;84.99;95047.56;4915633;29;20448;-83
2022/11/29 02:17:51;;;;;;;3.20;2.90;;;;;;;5.95;84.96;95059.44;4915779;29;20456;-84
2022/11/29 02:20:43;;;;;;;4.40;4.07;;;;;;;5.93;88.24;95050.91;4917112;29;20468;-84
2022/11/29 02:23:28;;;;;;;3.77;3.17;;;;;;;5.58;86.77;95045.31;4917478;29;20452;-83
2022/11/29 02:26:09;;;;;;;4.10;3.20;;;;;;;5.52;86.82;95048.28;4917925;29;20445;-84
2022/11/29 02:29:09;;;;;;;4.00;3.43;;;;;;;5.56;87.79;95048.00;4917805;29;20444;-83
2022/11/29 02:32:19;;;;;;;5.60;3.90;;;;;;;5.54;86.88;95049.88;4917939;29;20485;-83
2022/11/29 02:45:14;;;;;;;3.50;3.13;;;;;;;5.37;87.96;95049.22;4917438;29;20415;-83
2022/11/29 02:47:54;;;;;;;3.63;3.33;;;;;;;5.24;88.12;95056.97;4918267;29;20849;-83
2022/11/29 02:50:34;;;;;;;3.03;2.80;;;;;;;5.27;87.68;95054.19;4918321;29;20481;-83
2022/11/29 02:53:07;;;;;;;3.73;2.97;;;;;;;5.38;87.83;95058.72;4918145;29;20475;-84
2022/11/29 02:55:41;;;;;;;2.60;2.40;;;;;;;5.31;88.50;95054.81;4917735;29;20416;-83
2022/11/29 02:58:19;;;;;;;6.80;4.10;;;;;;;5.14;88.71;95053.25;4917667;29;20443;-82
2022/11/29 03:00:54;;;;;;;4.00;3.60;;;;;;;5.22;88.09;95048.44;4917422;29;20472;-83
2022/11/29 03:03:27;;;;;;;3.13;2.70;;;;;;;5.26;88.86;95052.50;4917769;29;20443;-83
2022/11/29 03:06:04;;;;;;;3.03;2.80;;;;;;;5.16;88.73;95048.78;4917674;29;20924;-84
2022/11/29 03:08:37;;;;;;;3.93;3.23;;;;;;;4.97;89.29;95055.13;4918285;29;20785;-84
2022/11/29 03:14:31;;;;;;;3.63;2.63;;;;;;;5.08;89.39;95053.63;4917225;29;20508;-83
2022/11/29 03:17:04;;;;;;;4.07;3.67;;;;;;;5.18;88.70;95059.91;4917738;29;20447;-83
2022/11/29 03:20:00;;;;;;;7.03;3.53;;;;;;;5.05;89.60;95056.41;4920253;29;20818;-83
2022/11/29 03:22:38;;;;;;;4.07;3.20;;;;;;;4.88;90.33;95062.59;4921023;29;20487;-82
2022/11/29 03:25:09;;;;;;;3.40;3.03;;;;;;;4.96;89.88;95060.41;4920881;29;20439;-83
2022/11/29 03:27:41;;;;;;;4.60;4.20;;;;;;;4.91;90.52;95060.66;4920478;29;20523;-83
2022/11/29 03:30:10;;;;;;;4.60;3.73;;;;;;;4.94;91.15;95068.31;4920149;29;20444;-83
2022/11/29 03:36:05;;;;;;;5.67;4.23;;;;;;;5.06;90.64;95064.13;4920101;29;20962;-84
2022/11/29 03:38:39;;;;;;;4.10;3.70;;;;;;;5.08;90.41;95067.47;4920296;29;20437;-84
2022/11/29 03:41:17;;;;;;;6.03;4.57;;;;;;;5.03;91.59;95071.28;4919954;29;20440;-84
2022/11/29 03:43:50;;;;;;;7.70;4.90;;;;;;;4.84;91.87;95069.75;4920192;29;20439;-84
2022/11/29 03:46:25;;;;;;;5.20;4.67;;;;;;;4.83;92.13;95068.09;4919809;29;20474;-83
2022/11/29 03:48:56;;;;;;;7.20;4.57;;;;;;;4.77;93.38;95070.22;4919909;29;20534;-83
2022/11/29 03:51:35;;;;;;;4.30;3.80;;;;;;;4.91;92.69;95065.84;4920015;29;20444;-83
2022/11/29 03:54:07;;;;;;;4.47;4.07;;;;;;;4.69;93.10;95068.09;4920062;29;20476;-84
2022/11/29 03:56:37;;;;;;;3.93;3.63;;;;;;;4.48;94.46;95058.94;4918200;29;20515;-83
2022/11/29 03:59:12;;;;;;;4.63;3.53;;;;;;;4.66;93.66;95063.91;4920372;29;21006;-83
2022/11/29 04:02:28;;;;;;;3.00;2.80;;;;;;;4.53;93.98;95059.50;4919552;29;20447;-83
2022/11/29 04:05:26;;;;;;;3.97;2.83;;;;;;;4.81;93.95;95061.31;4880115;29;20453;-83
2022/11/29 04:08:37;;;;;;;3.37;3.07;;;;;;;4.87;92.27;95061.78;4880737;29;20458;-83
2022/11/29 04:11:23;;;;;;;3.40;3.10;;;;;;;4.77;92.46;95063.25;4824579;29;20554;-83
2022/11/29 04:14:32;;;;;;;4.37;2.97;;;;;;;4.76;91.56;95064.19;4824530;29;20480;-81
2022/11/29 04:17:38;;;;;;;4.67;2.67;;;;;;;4.58;92.80;95070.47;4770632;30;20826;-83
2022/11/29 04:20:32;;;;;;;3.73;3.43;;;;;;;4.58;93.14;95070.47;4770260;30;20464;-83
2022/11/29 04:23:27;;;;;;;4.63;3.10;;;;;;;4.53;93.30;95072.50;4752616;30;20469;-83
2022/11/29 04:29:47;;;;;;;2.83;2.57;;;;;;;4.87;93.17;95082.56;4682043;30;20975;-84
2022/11/29 04:32:29;;;;;;;2.70;2.20;;;;;;;5.03;93.15;95085.09;4683134;30;20488;-85
2022/11/29 04:35:16;;;;;;;2.63;2.40;;;;;;;5.16;91.49;95080.00;4682998;30;20475;-85
2022/11/29 04:38:13;;;;;;;3.50;2.80;;;;;;;5.27;91.33;95082.78;4683127;30;20868;-84
2022/11/29 04:44:19;;;;;;;2.77;2.50;;;;;;;5.47;90.21;95082.38;4734809;30;20470;-84
2022/11/29 04:47:02;;;;;;;2.93;2.73;;;;;;;5.54;90.46;95075.91;4735591;30;21024;-84
2022/11/29 04:49:45;;;;;;;6.33;4.60;;;;;;;5.62;89.91;95077.19;4770211;30;20457;-84
2022/11/29 04:52:29;;;;;;;4.13;3.30;;;;;;;5.60;89.05;95070.31;4770005;30;20512;-85
2022/11/29 04:55:04;;;;;;;6.93;3.87;;;;;;;5.26;89.33;95075.91;4842211;29;21027;-84
2022/11/29 04:57:37;;;;;;;2.87;2.67;;;;;;;5.31;89.63;95070.44;4842281;29;20460;-84
2022/11/29 05:00:08;;;;;;;4.33;3.93;;;;;;;5.39;90.30;95082.03;4842370;29;20456;-84
2022/11/29 05:02:48;;;;;;;5.33;3.53;;;;;;;5.51;89.96;95080.47;4855762;29;20459;-84
2022/11/29 05:05:27;;;;;;;4.53;3.50;;;;;;;5.56;89.78;95074.03;4898739;29;20444;-84
2022/11/29 05:08:08;;;;;;;3.77;3.37;;;;;;;5.63;89.73;95073.63;4898387;29;20464;-85
2022/11/29 05:10:44;;;;;;;5.23;3.37;;;;;;;5.42;88.91;95071.44;4898904;29;20821;-84
2022/11/29 05:13:19;;;;;;;4.20;2.80;;;;;;;5.45;88.95;95070.41;4898613;29;20496;-84
2022/11/29 05:16:07;;;;;;;4.70;3.73;;;;;;;5.43;89.36;95052.28;4898296;29;20819;-84
2022/11/29 05:18:57;;;;;;;5.50;4.47;;;;;;;5.29;89.23;95073.13;4900554;29;20967;-84
2022/11/29 05:21:32;;;;;;;5.23;3.80;;;;;;;5.14;90.41;95071.44;4917295;29;20492;-83
2022/11/29 05:24:11;;;;;;;5.60;2.90;;;;;;;5.20;89.71;95071.94;4917252;29;20459;-84
2022/11/29 05:26:45;;;;;;;2.90;2.60;;;;;;;4.95;90.13;95071.75;4917441;29;20448;-84
2022/11/29 05:29:16;;;;;;;2.83;2.60;;;;;;;4.77;90.64;95078.84;4917830;29;20448;-85
2022/11/29 05:31:55;;;;;;;3.27;2.97;;;;;;;4.75;91.55;95079.88;4920154;29;20946;-85
2022/11/29 05:34:42;;;;;;;3.40;2.70;;;;;;;4.35;92.33;95072.66;4917091;29;21092;-85
2022/11/29 05:37:22;;;;;;;3.33;3.03;;;;;;;4.12;93.25;95070.53;4918745;29;20804;-94
2022/11/29 05:40:14;;;;;;;3.37;3.07;;;;;;;3.97;93.71;95073.97;4919118;29;20467;-86
2022/11/29 05:43:05;;;;;;;4.03;3.17;;;;;;;4.15;93.46;95085.09;4918874;29;20452;-87
2022/11/29 05:45:37;;;;;;;9.00;2.97;;;;;;;4.20;93.81;95073.50;4918429;29;20924;-89
2022/11/29 05:48:13;;;;;;;2.70;2.50;;;;;;;4.28;93.76;95089.50;4918950;29;20455;-87
2022/11/29 05:51:16;;;;;;;3.85;2.80;;;;;;;4.32;93.45;95082.34;4916790;29;20863;-85
2022/11/29 05:53:47;;;;;;;3.00;2.73;;;;;;;4.22;93.80;95081.22;4918120;29;20692;-83
2022/11/29 05:56:24;;;;;;;2.80;2.60;;;;;;;4.22;93.40;95082.06;4900368;29;20464;-88
2022/11/29 05:58:56;;;;;;;3.10;2.90;;;;;;;4.14;93.77;95084.25;4918198;29;20460;-85
2022/11/29 06:01:26;;;;;;;8.23;3.20;;;;;;;4.19;93.93;95082.22;4902179;29;20455;-84
2022/11/29 06:04:00;;;;;;;3.50;2.75;;;;;;;4.33;93.95;95086.63;4917362;29;21238;-84
2022/11/29 06:06:38;;;;;;;2.93;2.63;;;;;;;4.24;92.39;95077.59;4917479;29;20216;-85
2022/11/29 06:09:14;;;;;;;3.93;2.50;;;;;;;4.26;93.86;95078.34;4917959;29;20550;-85
2022/11/29 06:11:44;;;;;;;4.53;2.90;;;;;;;4.45;92.75;95079.91;4918062;29;20470;-85
2022/11/29 06:14:25;;;;;;;3.40;3.10;;;;;;;4.28;93.84;95073.91;4917598;29;20909;-85
2022/11/29 06:17:08;;;;;;;3.80;3.37;;;;;;;4.55;94.04;95081.03;4917761;29;20938;-85
2022/11/29 06:19:58;;;;;;;3.17;2.90;;;;;;;4.47;93.15;95080.66;4917420;29;20504;-84
2022/11/29 06:22:49;;;;;;;4.60;4.03;;;;;;;4.49;94.33;95082.22;4917922;29;20487;-86
2022/11/29 06:25:36;;;;;;;7.30;4.43;;;;;;;4.50;94.50;95080.47;4917828;29;20539;-81
2022/11/29 06:28:22;;;;;;;9.20;4.90;;;;;;;4.46;92.88;95078.97;4917707;29;20456;-88
2022/11/29 06:30:59;;;;;;;10.87;6.43;;;;;;;4.46;93.76;95078.97;4917489;29;20498;-86
2022/11/29 06:33:31;;;;;;;8.50;3.60;;;;;;;4.35;94.35;95080.44;4884077;29;20539;-84
2022/11/29 06:36:12;;;;;;;4.00;3.50;;;;;;;4.49;92.89;95087.44;4917060;29;20873;-85
2022/11/29 06:38:41;;;;;;;7.57;5.83;;;;;;;4.31;93.69;95076.31;4917659;29;20499;-84
2022/11/29 06:41:16;;;;;;;6.70;5.23;;;;;;;4.37;94.06;95075.16;4917519;29;20467;-85
2022/11/29 06:43:43;;;;;;;5.83;4.20;;;;;;;4.47;94.35;95083.25;4916836;29;20817;-85
2022/11/29 06:46:18;;;;;;;4.50;3.30;;;;;;;4.54;93.67;95081.97;4918736;29;20520;-85
2022/11/29 06:48:51;;;;;;;4.10;3.17;;;;;;;4.55;93.59;95081.03;4917826;29;20466;-86
2022/11/29 06:51:37;;;;;;;2.67;2.47;;;;;;;4.56;92.97;95085.31;4916229;29;20463;-85
2022/11/29 06:54:18;;;;;;;8.63;3.70;;;;;;;4.40;93.67;95084.53;4919981;29;20496;-85
2022/11/29 06:56:52;;;;;;;5.27;4.60;;;;;;;4.61;93.36;95091.06;4902405;29;21023;-84
2022/11/29 06:59:34;;;;;;;11.73;5.00;;;;;;;4.64;94.24;95090.91;4919679;29;20482;-84
2022/11/29 07:02:11;;;;;;;5.40;4.17;;;;;;;4.84;93.39;95087.13;4920053;29;20460;-84
2022/11/29 07:04:53;;;;;;;7.47;4.70;;;;;;;4.62;92.46;95100.53;4920021;29;20464;-84
2022/11/29 07:07:22;;;;;;;6.67;4.47;;;;;;;4.59;93.53;95100.72;4919411;29;20451;-84
2022/11/29 07:09:53;;;;;;;9.20;4.43;;;;;;;4.68;93.34;95100.19;4919263;29;20455;-84
2022/11/29 07:12:21;;;;;;;6.57;3.73;;;;;;;4.68;92.29;95092.41;4919761;29;21011;-85
2022/11/29 07:14:48;;;;;;;7.70;3.67;;;;;;;5.02;92.24;95098.19;4886627;29;20494;-84
2022/11/29 07:17:27;;;;;;;5.17;3.03;;;;;;;5.03;91.07;95095.50;4919651;29;20936;-84
2022/11/29 07:20:03;;;;;;;4.60;3.80;;;;;;;5.16;89.49;95101.63;4919210;29;20459;-85
2022/11/29 07:22:50;;;;;;;5.07;3.13;;;;;;;5.17;89.12;95103.31;4886112;29;20483;-84
2022/11/29 07:25:30;;;;;;;4.90;3.00;;;;;;;5.14;88.20;95103.50;4921467;29;20478;-85
2022/11/29 07:28:11;;;;;;;3.87;3.30;;;;;;;5.07;88.41;95106.56;4919472;29;20448;-85
2022/11/29 07:30:47;;;;;;;3.57;2.97;;;;;;;5.14;87.92;95107.84;4919298;29;20475;-84
2022/11/29 07:33:23;;;;;;;7.33;2.87;;;;;;;5.13;88.51;95106.19;4919251;29;20487;-84
2022/11/29 07:35:57;;;;;;;4.07;3.07;;;;;;;5.14;88.60;95103.50;4919225;29;20462;-85
2022/11/29 07:38:29;;;;;;;3.70;3.30;;;;;;;5.10;89.09;95106.38;4919117;29;20772;-85
2022/11/29 07:41:04;;;;;;;4.77;3.30;;;;;;;5.08;89.96;95113.44;4919077;29;20799;-85
2022/11/29 07:43:42;;;;;;;3.90;3.50;;;;;;;5.24;90.38;95112.44;4919138;29;20519;-85
2022/11/29 07:46:09;;;;;;;4.30;2.93;;;;;;;5.23;90.31;95109.94;4919186;29;20461;-84
2022/11/29 07:48:39;;;;;;;4.13;3.27;;;;;;;5.07;90.32;95106.56;4901171;29;20460;-84
2022/11/29 07:51:06;;;;;;;11.27;6.70;;;;;;;5.22;89.92;95116.91;4918578;29;20460;-85
2022/11/29 07:53:38;;;;;;;4.83;3.33;;;;;;;5.08;91.41;95114.28;4918540;29;20499;-84
2022/11/29 07:56:08;;;;;;;5.47;4.37;;;;;;;5.18;91.54;95106.75;4918900;29;20818;-84
2022/11/29 07:58:35;;;;;;;5.97;5.00;;;;;;;5.32;91.19;95109.34;4918832;29;20463;-84
2022/11/29 08:01:01;;;;;;;3.97;3.57;;;;;;;5.29;91.39;95097.38;4918456;29;20821;-85
2022/11/29 08:03:29;;;;;;;3.33;3.03;;;;;;;5.23;90.51;95107.31;4918078;29;20835;-85
2022/11/29 08:05:55;;;;;;;2.80;2.60;;;;;;;5.36;91.48;95108.25;4918684;29;20484;-85
2022/11/29 08:08:22;;;;;;;2.60;2.40;;;;;;;5.36;91.27;95108.25;4918596;29;20865;-85
2022/11/29 08:10:49;;;;;;;6.23;3.17;;;;;;;5.29;90.94;95110.38;4918746;29;20460;-85
2022/11/29 08:13:19;;;;;;;3.10;2.80;;;;;;;5.25;92.36;95106.31;4918433;29;20990;-85
2022/11/29 08:15:48;;;;;;;3.60;2.73;;;;;;;5.21;91.35;95117.00;4918730;29;20452;-85
2022/11/29 08:18:15;;;;;;;2.70;2.40;;;;;;;5.01;92.34;95112.13;4900785;29;20441;-83
2022/11/29 08:20:42;;;;;;;3.40;3.10;;;;;;;5.02;93.13;95113.81;4918203;29;20468;-84
2022/11/29 08:23:12;;;;;;;3.60;2.97;;;;;;;5.10;92.85;95111.56;4918735;29;20456;-84
2022/11/29 08:25:39;;;;;;;3.13;2.93;;;;;;;4.97;93.53;95107.13;4918402;29;20508;-84
2022/11/29 08:28:06;;;;;;;6.03;3.00;;;;;;;5.15;93.88;95114.72;4918326;29;20503;-84
2022/11/29 08:30:34;;;;;;;2.40;2.20;;;;;;;5.06;93.40;95110.09;4900525;29;20457;-85
2022/11/29 08:33:01;;;;;;;2.47;2.27;;;;;;;5.09;93.43;95104.69;4916291;29;20452;-84
2022/11/29 08:35:28;;;;;;;4.93;2.17;;;;;;;5.07;93.80;95110.00;4918020;29;20452;-85
2022/11/29 08:37:55;;;;;;;5.20;2.90;;;;;;;5.10;93.47;95107.22;4918200;29;20448;-85
2022/11/29 08:40:22;;;;;;;2.43;2.23;;;;;;;5.19;93.65;95111.84;4916178;29;20440;-84
2022/11/29 08:42:49;;;;;;;2.70;2.50;;;;;;;5.02;94.22;95104.25;4918945;29;20540;-84
2022/11/29 08:45:16;;;;;;;2.63;2.43;;;;;;;5.08;93.96;95106.47;4918141;29;20459;-84
2022/11/29 08:47:45;;;;;;;3.37;2.33;;;;;;;5.23;93.70;95104.72;4931768;29;20456;-84
2022/11/29 08:50:16;;;;;;;3.10;2.20;;;;;;;5.24;93.39;95111.59;4918183;29;20455;-85
2022/11/29 08:55:33;;;;;;;2.73;2.50;;;;;;;5.38;92.76;95103.78;4918101;29;20844;-84
2022/11/29 08:58:02;;;;;;;3.23;2.93;;;;;;;5.37;93.98;95104.72;4918284;29;20545;-84
2022/11/29 09:00:30;;;;;;;3.57;2.80;;;;;;;5.31;94.31;95105.09;4918010;29;20944;-86
2022/11/29 09:03:58;;;;;;;3.80;3.10;;;;;;;5.39;93.80;95099.41;4918209;29;20481;-85
2022/11/29 09:05:46;;;;;;;3.20;2.70;;;;;;;5.55;92.99;95103.59;4917808;29;20436;-86
2022/11/29 09:08:13;;;;;;;2.23;2.03;;;;;;;5.28;93.10;95094.88;4917647;29;20452;-86
2022/11/29 09:10:40;;;;;;;5.10;3.13;;;;;;;5.41;93.34;95094.94;4883963;29;20456;-85
2022/11/29 09:13:08;;;;;;;3.03;2.80;;;;;;;5.36;93.79;95095.22;4917543;29;20459;-85
2022/11/29 09:15:36;;;;;;;3.33;3.03;;;;;;;5.32;93.75;95098.94;4917258;29;20495;-85
2022/11/29 09:18:05;;;;;;;6.60;3.87;;;;;;;5.36;93.20;95095.22;4917413;29;20452;-85
2022/11/29 09:20:32;;;;;;;2.60;2.40;;;;;;;5.20;93.81;95091.88;4917422;29;20469;-85
2022/11/29 09:23:01;;;;;;;4.13;2.67;;;;;;;5.18;94.43;95088.53;4917277;29;20461;-85
2022/11/29 09:25:28;;;;;;;4.07;3.50;;;;;;;5.34;94.71;95081.47;4917351;29;20850;-85
2022/11/29 09:28:00;;;;;;;3.40;2.93;;;;;;;5.22;94.74;95082.25;4884295;29;20452;-85
2022/11/29 09:30:28;;;;;;;5.90;3.40;;;;;;;5.36;95.08;95077.03;4917546;29;20452;-85
2022/11/29 09:32:55;;;;;;;6.90;6.20;;;;;;;5.44;95.05;95079.97;4917232;29;20943;-87
2022/11/29 09:35:24;;;;;;;5.73;5.20;;;;;;;5.51;94.58;95072.66;4917129;29;20504;-86
2022/11/29 09:37:51;;;;;;;3.93;3.10;;;;;;;5.51;93.81;95081.28;4917209;29;20899;-85
2022/11/29 09:40:29;;;;;;;3.20;2.90;;;;;;;5.54;94.06;95070.69;4917334;29;20452;-85
2022/11/29 09:43:00;;;;;;;2.57;2.37;;;;;;;5.32;94.44;95067.72;4916966;29;20457;-85
2022/11/29 09:45:31;;;;;;;3.50;3.00;;;;;;;5.58;94.79;95066.97;4917031;29;20555;-85
2022/11/29 09:48:26;;;;;;;3.27;3.07;;;;;;;5.65;93.66;95066.56;4917009;29;20487;-85
2022/11/29 09:51:08;;;;;;;4.40;3.17;;;;;;;5.67;93.36;95062.09;4858725;29;20466;-85
2022/11/29 09:53:51;;;;;;;6.27;4.20;;;;;;;5.76;93.73;95064.13;4858816;29;20455;-85
2022/11/29 09:56:26;;;;;;;5.20;3.73;;;;;;;5.62;93.68;95054.59;4858670;29;20986;-84
2022/11/29 09:59:00;;;;;;;7.57;6.43;;;;;;;5.66;94.34;95055.22;4858571;29;20446;-84
2022/11/29 10:01:31;;;;;;;4.07;3.53;;;;;;;5.67;94.24;95055.13;4858449;29;20486;-85
2022/11/29 10:04:02;;;;;;;2.70;2.50;;;;;;;5.68;93.14;95058.56;4858628;29;20455;-84
2022/11/29 10:06:37;;;;;;;2.40;2.20;;;;;;;5.60;92.43;95049.47;4858391;29;21030;-85
2022/11/29 10:09:08;;;;;;;5.83;4.17;;;;;;;5.84;93.53;95054.06;4858484;29;20541;-84
2022/11/29 10:11:40;;;;;;;6.33;5.03;;;;;;;5.82;92.82;95046.34;4858364;29;20830;-85
2022/11/29 10:14:15;;;;;;;2.93;2.63;;;;;;;5.74;92.88;95046.00;4858102;29;20498;-86
2022/11/29 10:16:48;;;;;;;4.67;3.67;;;;;;;5.71;93.74;95045.34;4858401;29;20548;-84
2022/11/29 10:19:25;;;;;;;6.63;3.83;;;;;;;5.91;93.23;95037.16;4858787;29;20567;-85
2022/11/29 10:22:00;;;;;;;4.53;3.60;;;;;;;5.88;93.83;95034.72;4857991;29;20486;-85
2022/11/29 10:24:29;;;;;;;5.03;4.53;;;;;;;5.85;93.24;95040.13;4858672;29;20826;-85
2022/11/29 10:26:56;;;;;;;4.57;4.13;;;;;;;5.88;94.04;95032.09;4862528;29;20463;-85
2022/11/29 10:29:25;;;;;;;4.43;4.03;;;;;;;5.68;94.46;95033.38;4916486;29;20955;-85
2022/11/29 10:31:55;;;;;;;3.77;3.47;;;;;;;5.66;94.78;95035.22;4916271;29;20513;-85
2022/11/29 10:34:24;;;;;;;4.57;4.17;;;;;;;5.84;94.49;95035.84;4916481;29;20491;-84
2022/11/29 10:36:53;;;;;;;6.37;5.50;;;;;;;5.95;94.13;95024.75;4916441;29;20471;-85
2022/11/29 10:39:29;;;;;;;11.43;7.47;;;;;;;6.03;93.58;95031.13;4916964;29;20470;-84
2022/11/29 10:42:01;;;;;;;6.57;5.97;;;;;;;6.02;93.47;95026.84;4916110;29;20464;-85
2022/11/29 10:44:28;;;;;;;8.87;5.63;;;;;;;6.02;93.91;95020.81;4916281;29;20863;-85
2022/11/29 10:46:56;;;;;;;10.60;6.93;;;;;;;6.00;94.49;95035.72;4916501;29;20807;-85
2022/11/29 10:49:27;;;;;;;7.77;5.47;;;;;;;5.93;95.41;95035.28;4916599;29;20477;-85
2022/11/29 10:51:54;;;;;;;5.50;4.73;;;;;;;5.90;95.49;95025.06;4916495;29;20457;-85
2022/11/29 10:54:37;;;;;;;7.30;5.17;;;;;;;5.94;95.90;95023.94;4915948;29;21029;-85
2022/11/29 10:57:12;;;;;;;9.10;5.20;;;;;;;5.90;95.93;95015.47;4916213;29;20825;-86
2022/11/29 10:59:39;;;;;;;6.37;5.77;;;;;;;6.04;95.87;95022.38;4916484;29;20467;-85
2022/11/29 11:02:17;;;;;;;6.33;5.47;;;;;;;5.86;95.49;95016.59;4916266;29;20454;-86
2022/11/29 11:04:46;;;;;;;9.07;7.17;;;;;;;5.88;96.22;95011.28;4916168;29;20829;-86
2022/11/29 11:07:23;;;;;;;10.63;6.70;;;;;;;5.97;97.12;95002.06;4917521;29;20943;-86
2022/11/29 11:09:55;;;;;;;7.17;5.77;;;;;;;6.07;96.85;95010.94;4917771;29;20450;-85
2022/11/29 11:12:26;;;;;;;11.20;7.17;;;;;;;6.02;96.05;95013.84;4916108;29;20451;-86
2022/11/29 11:15:13;;;;;;;8.27;5.93;;;;;;;5.97;96.78;95008.09;4916571;29;20490;-86
2022/11/29 11:17:41;;;;;;;8.27;5.00;;;;;;;6.12;96.17;95012.31;4915803;29;20447;-86
2022/11/29 11:20:22;;;;;;;5.43;4.93;;;;;;;5.96;96.99;95014.25;4916359;29;20465;-85
2022/11/29 11:22:58;;;;;;;10.20;7.80;;;;;;;5.74;97.80;95008.72;4915936;29;20554;-86
2022/11/29 11:25:29;;;;;;;10.50;6.97;;;;;;;5.67;98.15;95017.84;4915855;29;21023;-85
2022/11/29 11:27:58;;;;;;;8.67;7.77;;;;;;;5.68;98.88;95009.94;4916409;29;20562;-86
2022/11/29 11:30:27;;;;;;;14.90;7.77;;;;;;;5.73;99.12;95013.06;4915992;29;20465;-86
2022/11/29 11:33:07;;;;;;;8.90;7.00;;;;;;;5.73;98.70;95026.09;4916044;29;20534;-86
2022/11/29 11:35:36;;;;;;;8.53;7.10;;;;;;;5.89;99.09;95020.75;4915767;29;21077;-86
2022/11/29 11:38:03;;;;;;;9.03;7.53;;;;;;;5.91;98.65;95026.72;4917223;29;20494;-86
2022/11/29 11:40:33;;;;;;;7.63;6.33;;;;;;;5.93;99.31;95024.03;4919139;29;20451;-86
2022/11/29 11:43:02;;;;;;;9.53;6.10;;;;;;;5.85;99.87;95022.72;4919126;29;20456;-86
2022/11/29 11:45:35;;;;;;;5.10;4.23;;;;;;;5.97;99.64;95022.88;4919484;29;20534;-86
2022/11/29 11:48:05;;;;;;;25.47;7.27;;;;;;;6.04;99.75;95024.16;4919210;29;20447;-86
2022/11/29 11:50:34;;;;;;;10.70;5.77;;;;;;;6.17;98.86;95014.63;4919562;29;20473;-86
2022/11/29 11:53:05;;;;;;;9.00;5.63;;;;;;;5.89;98.62;95020.75;4919271;29;20457;-86
2022/11/29 11:55:42;;;;;;;6.70;5.47;;;;;;;5.88;99.71;95012.09;4918911;29;20566;-86
2022/11/29 11:58:18;;;;;;;6.90;4.60;;;;;;;5.94;98.69;95018.72;4919154;29;20453;-85
2022/11/29 12:00:48;;;;;;;6.40;5.17;;;;;;;5.91;98.60;95018.91;4918928;29;20449;-86
2022/11/29 12:03:28;;;;;;;4.70;4.00;;;;;;;5.80;99.23;95024.78;4918825;29;20834;-86
2022/11/29 12:06:01;;;;;;;15.03;12.20;;;;;;;5.81;98.92;95021.25;4918713;29;20452;-86
2022/11/29 12:08:29;;;;;;;74.70;52.40;;;;;;;6.06;98.82;95015.31;4919313;29;20810;-86
2022/11/29 12:11:01;;;;;;;6.73;4.77;;;;;;;6.11;98.42;95026.28;4918965;29;20457;-86
2022/11/29 12:13:35;;;;;;;3.80;3.40;;;;;;;5.99;98.71;95024.47;4918814;29;20465;-86
2022/11/29 12:16:10;;;;;;;4.50;3.70;;;;;;;6.06;98.84;95011.88;4918973;29;20494;-86
2022/11/29 12:18:46;;;;;;;3.80;3.10;;;;;;;6.08;98.77;95010.84;4885204;29;20532;-86
2022/11/29 12:21:16;;;;;;;3.70;3.13;;;;;;;6.04;98.61;95011.13;4918370;29;20472;-86
2022/11/29 12:23:48;;;;;;;10.10;4.50;;;;;;;6.19;98.05;95008.38;4918907;29;20457;-86
2022/11/29 12:26:20;;;;;;;4.73;4.10;;;;;;;6.34;98.55;95009.13;4885164;29;20458;-86
2022/11/29 12:28:47;;;;;;;5.40;4.40;;;;;;;6.35;97.75;95007.34;4918607;29;20449;-86
2022/11/29 12:31:36;;;;;;;5.47;4.50;;;;;;;6.49;97.72;95009.88;4918711;29;20462;-86
2022/11/29 12:34:15;;;;;;;5.80;3.73;;;;;;;6.49;97.10;95013.31;4918467;29;20470;-86
2022/11/29 12:36:50;;;;;;;4.50;4.07;;;;;;;6.39;96.64;95011.44;4918249;29;20461;-86
2022/11/29 12:39:41;;;;;;;6.27;4.63;;;;;;;6.39;96.69;95014.88;4918433;29;20450;-86
2022/11/29 12:42:19;;;;;;;5.80;4.10;;;;;;;6.48;97.28;95022.09;4918239;29;20504;-86
2022/11/29 12:44:54;;;;;;;5.23;4.77;;;;;;;6.34;97.01;95018.69;4918353;29;20465;-86
2022/11/29 12:47:28;;;;;;;17.70;8.37;;;;;;;6.46;97.19;95015.31;4918158;29;20460;-85
2022/11/29 12:50:10;;;;;;;7.60;5.77;;;;;;;6.38;97.38;95013.22;4917368;29;20459;-85
2022/11/29 12:52:44;;;;;;;7.70;6.20;;;;;;;6.48;97.34;95010.81;4919478;29;20788;-82
2022/11/29 12:55:20;;;;;;;11.47;5.90;;;;;;;6.57;97.43;95019.78;4920112;29;20500;-83
2022/11/29 12:58:00;;;;;;;4.20;3.80;;;;;;;6.45;96.81;95006.66;4919378;29;20442;-87
2022/11/29 13:00:36;;;;;;;7.30;3.47;;;;;;;6.43;96.70;95016.34;4919486;29;20449;-82